Time;durP1;ratioP1;P1;durP2;ratioP2;P2;SDS_P1;SDS_P2;PMS_P1;PMS_P2;Temp;Humidity;BMP_temperature;BMP_pressure;BME280_temperature;BME280_humidity;BME280_pressure;Samples;Min_cycle;Max_cycle;Signal;HPM_P1;HPM_P2
2021/03/29 00:00:26;;;;;;;31.45;8.27;;;8.30;94.80;;;;;;5062306;28;20249;-73
2021/03/29 00:02:52;;;;;;;25.50;8.93;;;8.30;94.70;;;;;;5062290;28;20024;-72
2021/03/29 00:05:18;;;;;;;30.38;9.07;;;8.30;94.70;;;;;;5062231;28;20299;-72
2021/03/29 00:07:45;;;;;;;22.25;8.50;;;8.30;94.60;;;;;;5062177;28;20062;-72
2021/03/29 00:10:11;;;;;;;29.30;10.32;;;8.40;94.50;;;;;;5061866;28;20778;-71
2021/03/29 00:12:39;;;;;;;29.48;9.98;;;8.40;94.50;;;;;;5045780;28;20009;-71
2021/03/29 00:15:05;;;;;;;30.95;8.52;;;8.40;94.40;;;;;;5061908;28;20079;-71
2021/03/29 00:17:31;;;;;;;26.70;8.50;;;8.40;94.40;;;;;;5061790;28;20048;-72
2021/03/29 00:19:57;;;;;;;26.25;8.43;;;8.40;94.30;;;;;;5061280;28;20005;-73
2021/03/29 00:22:23;;;;;;;35.60;9.18;;;8.40;94.40;;;;;;5062639;28;20079;-72
2021/03/29 00:24:48;;;;;;;31.55;9.35;;;8.50;94.40;;;;;;5059145;28;20257;-72
2021/03/29 00:27:14;;;;;;;27.15;8.57;;;8.50;94.30;;;;;;5042181;28;20238;-71
2021/03/29 00:29:40;;;;;;;26.67;8.52;;;8.50;94.40;;;;;;5059635;28;20017;-72
2021/03/29 00:32:06;;;;;;;29.05;9.13;;;8.50;94.30;;;;;;5062079;28;20111;-72
2021/03/29 00:34:32;;;;;;;31.27;9.55;;;8.50;94.30;;;;;;5061678;28;20314;-72
2021/03/29 00:36:57;;;;;;;26.92;8.15;;;8.50;94.30;;;;;;5061820;28;20059;-72
2021/03/29 00:39:23;;;;;;;30.83;8.93;;;8.50;94.30;;;;;;5045249;28;20037;-72
2021/03/29 00:41:49;;;;;;;31.05;8.48;;;8.50;94.70;;;;;;5061786;28;20255;-71
2021/03/29 00:44:14;;;;;;;25.85;8.00;;;8.50;94.30;;;;;;5061684;28;20029;-72
2021/03/29 00:46:40;;;;;;;27.08;8.13;;;8.50;94.30;;;;;;5045690;28;20080;-72
2021/03/29 00:49:06;;;;;;;29.98;8.93;;;8.50;94.40;;;;;;5045610;28;20237;-72
2021/03/29 00:51:32;;;;;;;31.10;8.80;;;8.50;94.40;;;;;;5048433;28;20092;-72
2021/03/29 00:53:59;;;;;;;24.95;7.72;;;8.50;94.40;;;;;;5046347;28;20045;-73
2021/03/29 00:56:25;;;;;;;24.20;8.57;;;8.50;94.30;;;;;;5046096;28;20380;-73
2021/03/29 00:58:51;;;;;;;33.42;8.48;;;8.50;94.30;;;;;;5062910;28;20021;-72
2021/03/29 01:01:24;;;;;;;23.63;7.53;;;8.50;94.40;;;;;;5063157;28;20024;-72
2021/03/29 01:03:51;;;;;;;23.33;7.07;;;8.40;94.60;;;;;;5062912;28;20043;-73
2021/03/29 01:06:19;;;;;;;22.15;7.05;;;8.40;94.70;;;;;;5047786;28;20083;-73
2021/03/29 01:08:50;;;;;;;21.15;7.07;;;8.40;94.80;;;;;;5063186;28;20012;-72
2021/03/29 01:11:20;;;;;;;21.92;7.28;;;8.40;94.90;;;;;;5047915;28;20024;-73
2021/03/29 01:13:48;;;;;;;26.95;7.50;;;8.40;94.90;;;;;;5048602;28;20316;-72
2021/03/29 01:16:15;;;;;;;21.27;6.45;;;8.40;94.90;;;;;;5064894;28;20048;-73
2021/03/29 01:18:42;;;;;;;20.70;7.30;;;8.40;94.90;;;;;;5048180;28;20036;-72
2021/03/29 01:21:08;;;;;;;17.35;6.40;;;8.40;94.90;;;;;;5064391;28;20012;-72
2021/03/29 01:23:33;;;;;;;16.60;6.13;;;8.40;94.90;;;;;;5064977;28;20024;-73
2021/03/29 01:26:03;;;;;;;24.52;7.78;;;8.40;94.90;;;;;;5047758;28;20088;-73
2021/03/29 01:28:28;;;;;;;24.70;7.90;;;8.40;94.90;;;;;;5048064;28;20032;-73
2021/03/29 01:30:54;;;;;;;17.85;6.75;;;8.40;94.90;;;;;;5050838;28;20079;-73
2021/03/29 01:33:20;;;;;;;17.70;6.75;;;8.40;94.90;;;;;;5051625;28;20360;-73
2021/03/29 01:35:50;;;;;;;17.40;6.38;;;8.50;94.80;;;;;;5067638;28;20017;-72
2021/03/29 01:38:15;;;;;;;20.27;6.53;;;8.50;94.60;;;;;;5053572;28;20356;-73
2021/03/29 01:40:41;;;;;;;18.45;6.65;;;8.50;94.60;;;;;;5068831;28;20017;-73
2021/03/29 01:43:08;;;;;;;15.05;6.60;;;8.50;94.80;;;;;;5067773;28;20020;-72
2021/03/29 01:45:33;;;;;;;17.27;6.70;;;8.50;94.80;;;;;;5050307;28;20027;-72
2021/03/29 01:48:03;;;;;;;16.02;6.38;;;8.50;94.80;;;;;;5067996;28;20013;-72
2021/03/29 01:50:30;;;;;;;14.25;6.30;;;8.50;94.90;;;;;;5058480;28;20165;-72
2021/03/29 01:52:56;;;;;;;16.73;6.80;;;8.40;95.00;;;;;;5061054;28;20244;-72
2021/03/29 01:55:23;;;;;;;17.13;6.57;;;8.40;95.00;;;;;;5067359;28;20326;-72
2021/03/29 01:57:48;;;;;;;17.65;6.03;;;8.40;95.10;;;;;;5047480;28;20020;-72
2021/03/29 02:00:17;;;;;;;14.50;6.43;;;8.40;95.10;;;;;;5038276;28;20013;-72
2021/03/29 02:02:43;;;;;;;15.65;6.38;;;8.30;95.20;;;;;;5049392;28;20015;-72
2021/03/29 02:05:12;;;;;;;16.70;6.03;;;8.30;95.20;;;;;;5037804;28;20013;-72
2021/03/29 02:07:38;;;;;;;16.67;5.63;;;8.30;95.20;;;;;;5045572;28;20009;-72
2021/03/29 02:10:23;;;;;;;17.23;7.32;;;8.40;95.30;;;;;;5067523;28;20031;-72
2021/03/29 02:12:49;;;;;;;21.52;7.78;;;8.40;95.10;;;;;;5067104;28;20013;-72
2021/03/29 02:15:19;;;;;;;22.52;7.35;;;8.40;95.00;;;;;;5050494;28;20037;-72
2021/03/29 02:17:44;;;;;;;25.15;8.65;;;8.50;94.80;;;;;;5049314;28;20250;-72
2021/03/29 02:20:16;;;;;;;25.70;9.68;;;8.50;94.70;;;;;;5066569;28;20028;-72
2021/03/29 02:22:53;;;;;;;24.55;9.25;;;8.40;94.70;;;;;;5050182;28;20020;-72
2021/03/29 02:25:18;;;;;;;26.00;8.60;;;8.50;94.80;;;;;;5065400;28;20013;-72
2021/03/29 02:27:47;;;;;;;24.13;8.48;;;8.50;94.60;;;;;;5067681;28;20013;-72
2021/03/29 02:30:14;;;;;;;32.67;10.35;;;8.60;94.60;;;;;;5050701;28;20024;-72
2021/03/29 02:32:42;;;;;;;29.05;10.70;;;8.60;94.50;;;;;;5031777;28;20020;-72
2021/03/29 02:35:08;;;;;;;26.42;9.60;;;8.50;94.50;;;;;;5064383;28;20020;-72
2021/03/29 02:37:34;;;;;;;27.45;8.25;;;8.50;94.40;;;;;;5064784;28;20012;-72
2021/03/29 02:40:00;;;;;;;27.27;8.80;;;8.60;94.40;;;;;;5065388;28;20013;-72
2021/03/29 02:42:25;;;;;;;24.58;9.30;;;8.60;94.30;;;;;;5064895;28;20051;-71
2021/03/29 02:44:51;;;;;;;25.80;8.90;;;8.60;94.30;;;;;;5047623;28;20063;-72
2021/03/29 02:47:16;;;;;;;29.83;8.50;;;8.60;94.20;;;;;;5063975;28;20341;-72
2021/03/29 02:49:42;;;;;;;30.92;9.15;;;8.60;94.10;;;;;;5064499;28;20005;-72
2021/03/29 02:52:08;;;;;;;32.72;8.77;;;8.60;94.20;;;;;;5065626;28;20032;-72
2021/03/29 02:54:33;;;;;;;22.70;7.43;;;8.70;94.10;;;;;;5027575;28;20044;-72
2021/03/29 02:56:59;;;;;;;25.15;7.93;;;8.70;94.10;;;;;;5029022;28;20048;-72
2021/03/29 02:59:24;;;;;;;19.58;7.32;;;8.70;94.10;;;;;;5045085;28;20017;-72
2021/03/29 03:01:50;;;;;;;28.00;7.95;;;8.60;94.00;;;;;;5045825;28;20013;-72
2021/03/29 03:04:16;;;;;;;30.70;8.98;;;8.60;94.10;;;;;;5046086;28;20013;-72
2021/03/29 03:06:41;;;;;;;29.25;8.70;;;8.60;94.10;;;;;;5045020;28;20029;-72
2021/03/29 03:09:08;;;;;;;24.33;8.25;;;8.60;94.10;;;;;;5027502;28;20013;-72
2021/03/29 03:11:34;;;;;;;21.80;8.13;;;8.60;94.10;;;;;;5044947;28;20081;-72
2021/03/29 03:14:06;;;;;;;24.13;7.45;;;8.60;94.20;;;;;;5029785;28;20013;-72
2021/03/29 03:16:32;;;;;;;20.67;7.15;;;8.60;94.20;;;;;;5025277;28;20026;-72
2021/03/29 03:18:58;;;;;;;23.23;7.35;;;8.60;94.20;;;;;;5007357;28;20311;-71
2021/03/29 03:21:24;;;;;;;25.58;8.27;;;8.60;94.20;;;;;;5025808;28;20071;-72
2021/03/29 03:23:54;;;;;;;22.27;6.55;;;8.60;94.30;;;;;;5044403;28;20020;-72
2021/03/29 03:26:20;;;;;;;27.73;7.18;;;8.60;94.30;;;;;;5025483;28;20013;-72
2021/03/29 03:28:46;;;;;;;19.98;6.82;;;8.60;94.30;;;;;;5023459;28;20196;-72
2021/03/29 03:31:12;;;;;;;26.65;7.80;;;8.60;94.30;;;;;;5007095;28;20056;-72
2021/03/29 03:33:37;;;;;;;26.70;7.25;;;8.60;94.30;;;;;;5024887;28;20013;-72
2021/03/29 03:36:03;;;;;;;20.17;6.70;;;8.60;94.30;;;;;;5024619;28;20025;-72
2021/03/29 03:38:30;;;;;;;25.63;7.45;;;8.60;94.30;;;;;;5007662;28;20014;-72
2021/03/29 03:41:19;;;;;;;26.33;7.63;;;8.60;94.30;;;;;;5023556;28;20075;-72
2021/03/29 03:43:52;;;;;;;25.85;7.05;;;8.60;94.30;;;;;;5007629;28;20006;-72
2021/03/29 03:46:40;;;;;;;23.88;7.43;;;8.60;94.50;;;;;;5025596;28;20009;-72
2021/03/29 03:49:19;;;;;;;28.75;7.97;;;8.70;94.60;;;;;;5027134;28;20196;-72
2021/03/29 03:51:45;;;;;;;21.58;6.55;;;8.70;94.50;;;;;;5007840;28;20086;-72
2021/03/29 03:54:11;;;;;;;23.27;7.47;;;8.60;94.60;;;;;;5024087;28;20053;-72
2021/03/29 03:56:37;;;;;;;21.77;6.95;;;8.60;94.70;;;;;;5062854;28;20059;-72
2021/03/29 03:59:03;;;;;;;19.83;6.47;;;8.60;94.70;;;;;;5064359;28;20011;-72
2021/03/29 04:01:33;;;;;;;16.90;5.65;;;8.60;94.70;;;;;;5062230;28;20004;-72
2021/03/29 04:03:59;;;;;;;21.10;6.95;;;8.50;94.70;;;;;;5045742;28;20298;-72
2021/03/29 04:06:25;;;;;;;20.67;7.07;;;8.50;94.80;;;;;;5063002;28;20016;-72
2021/03/29 04:08:50;;;;;;;22.63;6.90;;;8.60;94.90;;;;;;5068842;28;20025;-72
2021/03/29 04:11:16;;;;;;;20.92;5.82;;;8.60;94.90;;;;;;5065009;28;20008;-72
2021/03/29 04:13:41;;;;;;;22.90;6.63;;;8.60;95.00;;;;;;5062517;28;20025;-72
2021/03/29 04:16:08;;;;;;;20.25;7.22;;;8.60;95.00;;;;;;5062682;28;20066;-73
2021/03/29 04:18:34;;;;;;;21.77;7.30;;;8.50;95.00;;;;;;5063127;28;20178;-73
2021/03/29 04:20:59;;;;;;;20.92;7.32;;;8.50;95.00;;;;;;5056927;28;20077;-72
2021/03/29 04:23:26;;;;;;;27.15;8.65;;;8.50;95.20;;;;;;5026617;28;20059;-72
2021/03/29 04:25:52;;;;;;;22.75;7.70;;;8.50;95.20;;;;;;5057254;28;20089;-72
2021/03/29 04:28:18;;;;;;;32.67;8.52;;;8.50;95.20;;;;;;5062291;28;20214;-72
2021/03/29 04:30:44;;;;;;;23.35;7.85;;;8.50;95.30;;;;;;5045421;28;20028;-72
2021/03/29 04:33:09;;;;;;;25.23;7.60;;;8.50;95.30;;;;;;5063049;28;20019;-72
2021/03/29 04:35:35;;;;;;;24.88;8.02;;;8.50;95.40;;;;;;5062563;28;20020;-72
2021/03/29 04:38:01;;;;;;;24.55;7.95;;;8.50;95.50;;;;;;5045465;28;20054;-72
2021/03/29 04:40:26;;;;;;;22.85;8.95;;;8.50;95.50;;;;;;5041975;28;20001;-71
2021/03/29 04:42:52;;;;;;;20.98;8.40;;;8.50;95.40;;;;;;5047553;28;20076;-71
2021/03/29 04:45:18;;;;;;;25.25;7.85;;;8.50;95.40;;;;;;5061398;28;20017;-71
2021/03/29 04:47:44;;;;;;;22.67;8.18;;;8.50;95.40;;;;;;5075980;28;20012;-71
2021/03/29 04:50:10;;;;;;;22.60;7.95;;;8.50;95.40;;;;;;5062627;28;20016;-72
2021/03/29 04:52:36;;;;;;;24.05;7.53;;;8.50;95.40;;;;;;5061378;28;20071;-71
2021/03/29 04:55:02;;;;;;;20.92;6.97;;;8.50;95.30;;;;;;5061360;28;20025;-72
2021/03/29 04:57:27;;;;;;;29.42;8.77;;;8.40;95.30;;;;;;5061589;28;20039;-72
2021/03/29 04:59:53;;;;;;;18.95;6.93;;;8.40;95.20;;;;;;5046166;28;20005;-72
2021/03/29 05:02:18;;;;;;;22.73;7.78;;;8.40;95.30;;;;;;5045655;28;20072;-72
2021/03/29 05:04:44;;;;;;;22.60;7.38;;;8.40;95.20;;;;;;5066265;28;20313;-72
2021/03/29 05:07:10;;;;;;;21.80;6.60;;;8.40;95.20;;;;;;5084120;28;20321;-72
2021/03/29 05:09:36;;;;;;;21.23;6.15;;;8.40;95.30;;;;;;5065521;28;20088;-71
2021/03/29 05:12:15;;;;;;;16.25;6.50;;;8.40;95.30;;;;;;5075051;28;20048;-72
2021/03/29 05:14:41;;;;;;;17.98;6.72;;;8.40;95.30;;;;;;5052433;28;20024;-72
2021/03/29 05:17:07;;;;;;;21.50;6.97;;;8.40;95.30;;;;;;5070401;28;20028;-72
2021/03/29 05:19:33;;;;;;;18.58;6.05;;;8.40;95.20;;;;;;5050435;28;20093;-72
2021/03/29 05:21:59;;;;;;;13.60;5.40;;;8.40;95.30;;;;;;5049949;28;20009;-72
2021/03/29 05:24:24;;;;;;;20.33;6.50;;;8.40;95.30;;;;;;5065728;28;20068;-72
2021/03/29 05:26:50;;;;;;;14.98;5.22;;;8.40;95.20;;;;;;5071612;28;20046;-72
2021/03/29 05:29:16;;;;;;;10.75;4.75;;;8.40;95.10;;;;;;5050454;28;20028;-72
2021/03/29 05:31:41;;;;;;;18.08;5.78;;;8.40;95.20;;;;;;5054350;28;20272;-72
2021/03/29 05:34:11;;;;;;;15.90;5.68;;;8.40;95.20;;;;;;5050748;28;20001;-72
2021/03/29 05:36:40;;;;;;;17.65;5.65;;;8.40;95.20;;;;;;5067183;28;20036;-72
2021/03/29 05:39:06;;;;;;;15.38;5.22;;;8.40;95.30;;;;;;5066770;28;20037;-72
2021/03/29 05:41:32;;;;;;;15.90;5.75;;;8.40;95.30;;;;;;5067090;28;20059;-72
2021/03/29 05:43:57;;;;;;;17.75;5.10;;;8.40;95.10;;;;;;5055226;28;20024;-72
2021/03/29 05:46:23;;;;;;;14.00;4.85;;;8.40;95.10;;;;;;5074581;28;20039;-72
2021/03/29 05:48:48;;;;;;;11.57;4.18;;;8.40;95.10;;;;;;5061254;28;20013;-72
2021/03/29 05:51:14;;;;;;;14.50;4.47;;;8.40;95.10;;;;;;5055042;28;20115;-72
2021/03/29 05:53:40;;;;;;;16.90;5.03;;;8.40;95.10;;;;;;5051003;28;20112;-72
2021/03/29 05:56:07;;;;;;;14.32;4.28;;;8.40;95.00;;;;;;5057263;28;20029;-72
2021/03/29 05:58:45;;;;;;;12.15;4.47;;;8.40;95.00;;;;;;5031031;28;20010;-72
2021/03/29 06:01:10;;;;;;;16.27;6.07;;;8.40;95.00;;;;;;5047875;28;20010;-73
2021/03/29 06:03:40;;;;;;;14.77;5.00;;;8.50;95.00;;;;;;5059321;28;20348;-73
2021/03/29 06:06:11;;;;;;;15.90;5.57;;;8.50;94.90;;;;;;5066528;28;20016;-72
2021/03/29 06:08:40;;;;;;;;;;;8.60;95.00;;;;;;5060901;28;20001;-72
2021/03/29 06:11:06;;;;;;;11.63;4.30;;;8.60;94.80;;;;;;5062063;28;19912;-72
2021/03/29 06:13:32;;;;;;;12.23;4.25;;;8.60;94.80;;;;;;5043258;28;20058;-72
2021/03/29 06:16:10;;;;;;;14.00;4.85;;;8.60;94.70;;;;;;5057945;28;20091;-72
2021/03/29 06:18:37;;;;;;;16.55;4.53;;;8.60;94.70;;;;;;5047382;28;20021;-72
2021/03/29 06:21:07;;;;;;;10.98;4.00;;;8.60;94.60;;;;;;5047378;28;20009;-72
2021/03/29 06:23:33;;;;;;;17.60;4.28;;;8.60;94.60;;;;;;5058397;28;20044;-73
2021/03/29 06:26:20;;;;;;;9.48;3.35;;;8.60;94.50;;;;;;5061259;28;20024;-72
2021/03/29 06:28:46;;;;;;;15.27;5.38;;;8.60;94.40;;;;;;5062001;28;20052;-72
2021/03/29 06:31:19;;;;;;;13.57;3.53;;;8.60;94.30;;;;;;5035970;28;20023;-72
2021/03/29 06:33:45;;;;;;;11.57;4.57;;;8.60;94.30;;;;;;5064972;28;20005;-72
2021/03/29 06:36:12;;;;;;;13.27;4.38;;;8.60;94.30;;;;;;5044049;28;20092;-73
2021/03/29 06:38:38;;;;;;;12.65;4.63;;;8.60;94.20;;;;;;5041143;28;20013;-72
2021/03/29 06:41:04;;;;;;;13.48;4.30;;;8.60;94.20;;;;;;5055094;28;20090;-73
2021/03/29 06:43:41;;;;;;;14.02;5.07;;;8.60;94.10;;;;;;5063218;28;20020;-72
2021/03/29 06:46:27;;;;;;;10.23;3.80;;;8.60;94.50;;;;;;5049537;28;20021;-72
2021/03/29 06:48:54;;;;;;;13.95;5.20;;;8.60;94.20;;;;;;5070448;28;20032;-72
2021/03/29 06:51:20;;;;;;;13.38;5.38;;;8.70;94.10;;;;;;5066367;28;20040;-72
2021/03/29 06:53:59;;;;;;;12.23;4.57;;;8.70;94.20;;;;;;5076035;28;20095;-72
2021/03/29 06:56:32;;;;;;;13.93;5.40;;;8.80;94.20;;;;;;5057526;28;20041;-72
2021/03/29 06:59:04;;;;;;;17.58;5.35;;;8.80;93.90;;;;;;5046726;28;20020;-72
2021/03/29 07:01:30;;;;;;;13.38;4.22;;;8.80;94.00;;;;;;5054799;28;20024;-72
2021/03/29 07:03:56;;;;;;;9.80;4.05;;;8.80;93.90;;;;;;5041453;28;20212;-72
2021/03/29 07:06:26;;;;;;;8.35;3.72;;;8.80;93.90;;;;;;5058228;28;20005;-72
2021/03/29 07:08:52;;;;;;;12.77;4.47;;;8.80;93.80;;;;;;5057349;28;20754;-72
2021/03/29 07:11:19;;;;;;;12.85;4.25;;;8.90;93.80;;;;;;5060875;28;20361;-72
2021/03/29 07:13:45;;;;;;;15.55;5.38;;;8.80;93.80;;;;;;5025039;28;20016;-72
2021/03/29 07:16:11;;;;;;;14.90;4.30;;;8.80;93.90;;;;;;5044162;28;20025;-72
2021/03/29 07:18:37;;;;;;;12.82;4.07;;;8.80;94.00;;;;;;5051795;28;20014;-72
2021/03/29 07:21:08;;;;;;;13.27;4.65;;;8.80;94.00;;;;;;5056193;28;20123;-73
2021/03/29 07:23:34;;;;;;;10.40;4.35;;;8.80;93.90;;;;;;5057775;28;20009;-73
2021/03/29 07:26:00;;;;;;;14.45;4.72;;;8.90;93.90;;;;;;5071448;28;20362;-72
2021/03/29 07:28:28;;;;;;;13.13;4.63;;;8.90;93.80;;;;;;5038680;28;20337;-71
2021/03/29 07:30:59;;;;;;;15.70;4.13;;;8.80;93.70;;;;;;5024069;28;20217;-72
2021/03/29 07:33:24;;;;;;;9.93;3.57;;;8.90;93.80;;;;;;5058797;28;20069;-72
2021/03/29 07:35:51;;;;;;;10.93;3.53;;;8.90;93.70;;;;;;5042262;28;20071;-72
2021/03/29 07:38:22;;;;;;;13.27;4.07;;;8.90;93.80;;;;;;5048932;28;20050;-72
2021/03/29 07:40:57;;;;;;;10.07;3.25;;;8.90;93.80;;;;;;5035295;28;20017;-72
2021/03/29 07:43:27;;;;;;;10.52;3.70;;;8.90;93.90;;;;;;5053985;28;20021;-72
2021/03/29 07:46:06;;;;;;;7.72;3.45;;;8.90;93.80;;;;;;5042460;28;20016;-72
2021/03/29 07:48:36;;;;;;;6.75;2.90;;;8.80;93.90;;;;;;5030203;28;20047;-72
2021/03/29 07:51:05;;;;;;;8.55;3.30;;;8.90;94.00;;;;;;5053361;28;20014;-72
2021/03/29 07:53:42;;;;;;;9.32;3.42;;;8.90;93.90;;;;;;5055811;28;20045;-72
2021/03/29 07:56:08;;;;;;;12.85;3.90;;;8.90;93.90;;;;;;5066219;28;20334;-72
2021/03/29 07:58:43;;;;;;;9.35;3.92;;;8.90;94.00;;;;;;5056395;28;20018;-71
2021/03/29 08:01:10;;;;;;;9.27;3.65;;;8.90;93.90;;;;;;5051449;28;20001;-72
2021/03/29 08:03:41;;;;;;;8.90;3.88;;;8.90;93.90;;;;;;5053114;28;20333;-72
2021/03/29 08:06:07;;;;;;;12.25;3.58;;;8.90;94.00;;;;;;5056586;28;20255;-72
2021/03/29 08:08:40;;;;;;;8.63;3.63;;;8.90;94.30;;;;;;5037692;28;20363;-72
2021/03/29 08:11:17;;;;;;;8.40;3.00;;;8.90;93.90;;;;;;5055423;28;20045;-72
2021/03/29 08:13:53;;;;;;;10.50;5.18;;;8.90;94.00;;;;;;5062399;28;20004;-72
2021/03/29 08:16:22;;;;;;;10.13;4.07;;;8.90;94.00;;;;;;5044790;28;20095;-72
2021/03/29 08:19:06;;;;;;;11.07;4.40;;;8.80;93.90;;;;;;5059586;28;20016;-73
2021/03/29 08:21:54;;;;;;;10.57;4.07;;;8.80;94.00;;;;;;5053167;28;20020;-72
2021/03/29 08:24:27;;;;;;;12.07;4.43;;;8.80;94.00;;;;;;5056914;28;20010;-72
2021/03/29 08:27:02;;;;;;;7.20;3.22;;;8.80;94.10;;;;;;5044380;28;20135;-72
2021/03/29 08:29:35;;;;;;;8.55;3.38;;;8.90;94.10;;;;;;5061717;28;20009;-72
2021/03/29 08:32:25;;;;;;;8.45;3.58;;;8.90;94.10;;;;;;5042446;28;20017;-72
2021/03/29 08:34:54;;;;;;;11.43;4.07;;;8.90;94.00;;;;;;5059781;28;20013;-72
2021/03/29 08:37:27;;;;;;;12.82;4.45;;;8.90;93.90;;;;;;5043638;28;20025;-72
2021/03/29 08:39:55;;;;;;;10.48;3.65;;;8.90;94.00;;;;;;5041201;28;20028;-72
2021/03/29 08:42:23;;;;;;;10.82;4.40;;;8.90;94.10;;;;;;5058719;28;20271;-72
2021/03/29 08:44:49;;;;;;;12.77;4.95;;;8.90;94.10;;;;;;5044978;28;20013;-72
2021/03/29 08:47:16;;;;;;;11.35;4.43;;;8.90;94.00;;;;;;5056464;28;20028;-72
2021/03/29 08:49:42;;;;;;;13.27;4.70;;;8.90;93.90;;;;;;5041627;28;20009;-72
2021/03/29 08:52:08;;;;;;;9.00;4.03;;;8.90;93.90;;;;;;5041333;28;20076;-72
2021/03/29 08:54:34;;;;;;;12.45;4.90;;;8.90;93.90;;;;;;5023452;28;20036;-72
2021/03/29 08:57:06;;;;;;;14.30;6.30;;;9.00;94.00;;;;;;5055914;28;20025;-72
2021/03/29 08:59:33;;;;;;;14.35;6.18;;;9.00;93.90;;;;;;5045439;28;20056;-72
2021/03/29 09:02:00;;;;;;;13.07;5.13;;;9.00;94.00;;;;;;5039229;28;20033;-71
2021/03/29 09:04:25;;;;;;;17.77;5.32;;;9.10;93.90;;;;;;5038672;28;20018;-72
2021/03/29 09:06:53;;;;;;;12.00;5.32;;;9.10;93.80;;;;;;5038818;28;20017;-72
2021/03/29 09:09:21;;;;;;;13.25;4.43;;;9.00;93.80;;;;;;5054812;28;20032;-72
2021/03/29 09:11:47;;;;;;;17.80;6.35;;;9.00;93.90;;;;;;5058961;28;20198;-72
2021/03/29 09:14:15;;;;;;;14.10;5.28;;;9.00;94.00;;;;;;5058291;28;20063;-72
2021/03/29 09:16:41;;;;;;;19.63;6.53;;;9.00;94.00;;;;;;5056531;28;20099;-72
2021/03/29 09:19:14;;;;;;;16.60;5.55;;;9.00;94.00;;;;;;5040323;28;20021;-72
2021/03/29 09:21:39;;;;;;;16.67;5.75;;;9.00;93.90;;;;;;5040086;28;20014;-72
2021/03/29 09:24:18;;;;;;;21.38;7.05;;;9.10;93.90;;;;;;5042639;28;20274;-73
2021/03/29 09:26:53;;;;;;;18.33;5.60;;;9.10;93.80;;;;;;5057994;28;20080;-73
2021/03/29 09:29:21;;;;;;;18.02;5.70;;;9.20;93.80;;;;;;5055850;28;20031;-72
2021/03/29 09:31:47;;;;;;;17.83;6.05;;;9.10;93.60;;;;;;5058449;28;20009;-72
2021/03/29 09:34:13;;;;;;;16.10;5.95;;;9.10;93.90;;;;;;5055606;28;20022;-72
2021/03/29 09:36:38;;;;;;;19.80;7.03;;;9.10;93.70;;;;;;5053490;28;20188;-72
2021/03/29 09:39:12;;;;;;;29.00;9.13;;;9.10;93.60;;;;;;5025357;28;20005;-72
2021/03/29 09:41:39;;;;;;;26.65;7.63;;;9.10;93.50;;;;;;5067296;28;20081;-72
2021/03/29 09:44:06;;;;;;;18.30;6.00;;;9.20;93.70;;;;;;5042089;28;20248;-72
2021/03/29 09:46:33;;;;;;;19.65;5.68;;;9.20;93.50;;;;;;5053973;28;20017;-72
2021/03/29 09:49:12;;;;;;;26.67;7.25;;;9.30;93.50;;;;;;5052580;28;20025;-72
2021/03/29 09:51:38;;;;;;;23.90;7.05;;;9.20;93.30;;;;;;5022420;28;20028;-72
2021/03/29 09:54:20;;;;;;;23.52;7.25;;;9.20;93.40;;;;;;5058354;28;20044;-72
2021/03/29 09:56:45;;;;;;;21.02;7.53;;;9.20;93.40;;;;;;5061163;28;20236;-72
2021/03/29 09:59:11;;;;;;;23.75;6.88;;;9.20;93.50;;;;;;5046245;28;20059;-72
2021/03/29 10:01:43;;;;;;;21.80;6.38;;;9.30;93.50;;;;;;5046405;28;20009;-72
2021/03/29 10:04:12;;;;;;;19.42;6.10;;;9.30;93.30;;;;;;5042378;28;20092;-72
2021/03/29 10:06:38;;;;;;;22.88;6.63;;;9.30;93.20;;;;;;5040179;28;20196;-73
2021/03/29 10:09:07;;;;;;;23.10;5.97;;;9.30;93.20;;;;;;5046308;28;20033;-73
2021/03/29 10:11:43;;;;;;;18.88;6.25;;;9.40;93.20;;;;;;5061200;28;20025;-72
2021/03/29 10:14:08;;;;;;;17.80;5.38;;;9.40;93.10;;;;;;5062018;28;20013;-72
2021/03/29 10:16:43;;;;;;;18.67;5.60;;;9.40;93.30;;;;;;5063212;28;20025;-73
2021/03/29 10:19:14;;;;;;;22.30;6.65;;;9.40;93.00;;;;;;5045844;28;20013;-72
2021/03/29 10:22:04;;;;;;;17.10;5.80;;;9.50;93.00;;;;;;5060781;28;20040;-73
2021/03/29 10:24:32;;;;;;;41.58;11.52;;;9.50;92.90;;;;;;5064296;28;20310;-72
2021/03/29 10:27:05;;;;;;;22.45;7.00;;;9.60;92.80;;;;;;5044120;28;20021;-71
2021/03/29 10:29:37;;;;;;;43.40;14.02;;;9.60;92.70;;;;;;5043742;28;20013;-72
2021/03/29 10:32:04;;;;;;;23.48;7.85;;;9.60;92.80;;;;;;5041612;28;20322;-72
2021/03/29 10:34:30;;;;;;;37.05;10.52;;;9.60;92.70;;;;;;5056515;28;20017;-72
2021/03/29 10:36:55;;;;;;;17.15;5.28;;;9.60;92.80;;;;;;5044674;28;20122;-72
2021/03/29 10:39:21;;;;;;;19.05;5.38;;;9.60;92.90;;;;;;5040909;28;20036;-72
2021/03/29 10:41:46;;;;;;;38.15;14.75;;;9.60;92.80;;;;;;5059080;28;20048;-72
2021/03/29 10:44:12;;;;;;;34.15;10.10;;;9.60;92.80;;;;;;5055143;28;20044;-72
2021/03/29 10:46:41;;;;;;;16.20;5.82;;;9.60;92.80;;;;;;5039273;28;20017;-72
2021/03/29 10:49:08;;;;;;;24.67;8.15;;;9.60;92.80;;;;;;5027164;28;20025;-71
2021/03/29 10:51:34;;;;;;;16.48;5.60;;;9.70;92.80;;;;;;5053355;28;20021;-73
2021/03/29 10:53:59;;;;;;;18.23;6.43;;;9.70;92.70;;;;;;5040171;28;20241;-72
2021/03/29 10:56:25;;;;;;;18.23;5.63;;;9.70;92.70;;;;;;5041134;28;20037;-71
2021/03/29 10:58:50;;;;;;;13.55;4.75;;;9.70;92.80;;;;;;5042520;28;20029;-74
2021/03/29 11:01:16;;;;;;;12.50;4.40;;;9.70;92.80;;;;;;5059251;28;20047;-72
2021/03/29 11:03:42;;;;;;;12.75;3.80;;;9.70;92.80;;;;;;5039848;28;20125;-72
2021/03/29 11:06:07;;;;;;;9.98;3.67;;;9.70;92.80;;;;;;5058643;28;20016;-73
2021/03/29 11:08:33;;;;;;;11.50;4.05;;;9.70;92.70;;;;;;5057623;28;20005;-72
2021/03/29 11:10:59;;;;;;;10.45;4.35;;;9.70;92.90;;;;;;5057916;28;20009;-72
2021/03/29 11:13:25;;;;;;;9.80;3.88;;;9.70;93.00;;;;;;5053130;28;20011;-72
2021/03/29 11:15:51;;;;;;;8.98;3.45;;;9.70;93.10;;;;;;5026970;28;20031;-72
2021/03/29 11:18:18;;;;;;;9.80;3.63;;;9.70;93.20;;;;;;5026243;28;20179;-72
2021/03/29 11:20:43;;;;;;;10.77;4.22;;;9.80;92.90;;;;;;5058982;28;20017;-72
2021/03/29 11:23:09;;;;;;;6.82;3.28;;;9.80;92.90;;;;;;5058720;28;20084;-72
2021/03/29 11:25:35;;;;;;;11.93;4.72;;;9.70;92.90;;;;;;5057402;28;20209;-71
2021/03/29 11:28:00;;;;;;;12.98;4.45;;;9.80;93.00;;;;;;5055971;28;20052;-73
2021/03/29 11:30:26;;;;;;;7.75;3.63;;;9.70;92.80;;;;;;5039912;28;20019;-71
2021/03/29 11:32:51;;;;;;;13.63;3.92;;;9.80;93.00;;;;;;5057988;28;20059;-72
2021/03/29 11:35:17;;;;;;;11.55;3.97;;;9.80;92.90;;;;;;5059777;28;20378;-72
2021/03/29 11:37:43;;;;;;;8.23;3.63;;;9.80;92.70;;;;;;5041005;28;20010;-71
2021/03/29 11:40:11;;;;;;;17.55;6.78;;;9.80;92.70;;;;;;5051772;28;20678;-71
2021/03/29 11:42:37;;;;;;;12.60;4.55;;;9.80;93.00;;;;;;5058618;28;20025;-73
2021/03/29 11:45:04;;;;;;;10.98;4.53;;;9.80;93.00;;;;;;5054378;28;20005;-73
2021/03/29 11:47:29;;;;;;;8.52;3.65;;;9.70;92.90;;;;;;5040242;28;20021;-72
2021/03/29 11:49:55;;;;;;;11.02;3.85;;;9.70;93.10;;;;;;5043635;28;20017;-72
2021/03/29 11:52:20;;;;;;;13.85;4.90;;;9.80;93.00;;;;;;5028266;28;20005;-71
2021/03/29 11:54:46;;;;;;;14.68;5.05;;;9.90;93.00;;;;;;5063130;28;20372;-72
2021/03/29 11:57:12;;;;;;;52.30;18.80;;;9.90;93.10;;;;;;5060750;28;20032;-71
2021/03/29 11:59:44;;;;;;;31.08;11.50;;;9.90;93.30;;;;;;5058571;28;20338;-72
2021/03/29 12:02:15;;;;;;;19.55;7.60;;;9.90;93.30;;;;;;5055622;28;20025;-72
2021/03/29 12:05:27;;;;;;;19.73;7.88;;;9.90;93.20;;;;;;5056254;28;20191;-72
2021/03/29 12:07:47;;;;;;;16.70;5.90;;;9.90;93.10;;;;;;5045293;28;20013;-71
2021/03/29 12:12:58;;;;;;;14.35;5.15;;;10.00;92.80;;;;;;5056993;28;20336;-72
2021/03/29 12:15:23;;;;;;;16.13;5.70;;;10.00;92.50;;;;;;5038593;28;20029;-72
2021/03/29 12:17:50;;;;;;;14.98;5.32;;;10.00;92.50;;;;;;5059706;28;20092;-72
2021/03/29 12:20:16;;;;;;;17.42;6.15;;;10.00;92.40;;;;;;5055905;28;20043;-72
2021/03/29 12:22:46;;;;;;;21.92;6.82;;;10.10;92.40;;;;;;5052276;28;20017;-72
2021/03/29 12:25:14;;;;;;;20.13;6.72;;;10.20;92.20;;;;;;5055899;28;20080;-72
2021/03/29 12:27:39;;;;;;;17.48;5.70;;;10.10;92.00;;;;;;5023608;28;20009;-71
2021/03/29 12:30:12;;;;;;;20.85;5.53;;;10.10;92.20;;;;;;5040875;28;20025;-71
2021/03/29 12:32:37;;;;;;;23.00;6.50;;;10.10;92.20;;;;;;5042169;28;20043;-72
2021/03/29 12:35:03;;;;;;;25.02;6.78;;;10.10;92.20;;;;;;5036424;28;20021;-72
2021/03/29 12:37:30;;;;;;;19.63;6.30;;;10.10;92.30;;;;;;5059683;28;20013;-71
2021/03/29 12:40:18;;;;;;;23.05;6.68;;;10.20;92.20;;;;;;5058793;28;20017;-72
2021/03/29 12:45:22;;;;;;;28.50;7.22;;;10.10;92.00;;;;;;5052202;28;20096;-72
2021/03/29 12:47:48;;;;;;;27.98;7.38;;;10.10;92.20;;;;;;5057383;28;20321;-72
2021/03/29 12:50:15;;;;;;;23.67;6.45;;;10.10;92.00;;;;;;5021327;28;20048;-72
2021/03/29 12:52:41;;;;;;;25.63;7.25;;;10.20;92.10;;;;;;5052732;28;20043;-72
2021/03/29 12:55:08;;;;;;;25.10;7.38;;;10.30;92.00;;;;;;5054664;28;20036;-73
2021/03/29 12:57:34;;;;;;;33.47;7.72;;;10.30;91.90;;;;;;5035261;28;20025;-72